sensor_id;sensor_type;location;lat;lon;timestamp;pressure;altitude;pressure_sealevel;temperature;humidity
54369;BME280;40266;52.434;17.056;2023-05-01T00:35:04;101290.91;;;1.36;76.30
54369;BME280;40266;52.434;17.056;2023-05-01T01:02:26;101273.94;;;0.93;77.46
54369;BME280;40266;52.434;17.056;2023-05-01T01:05:09;101274.66;;;0.89;77.46
54369;BME280;40266;52.434;17.056;2023-05-01T01:11:29;101269.96;;;0.81;77.64
54369;BME280;40266;52.434;17.056;2023-05-01T01:14:21;101272.59;;;0.78;77.86
54369;BME280;40266;52.434;17.056;2023-05-01T01:17:22;101271.45;;;0.74;77.93
54369;BME280;40266;52.434;17.056;2023-05-01T01:26:11;101274.00;;;0.63;78.39
54369;BME280;40266;52.434;17.056;2023-05-01T01:32:06;101265.64;;;0.54;78.49
54369;BME280;40266;52.434;17.056;2023-05-01T01:34:54;101256.20;;;0.49;78.90
54369;BME280;40266;52.434;17.056;2023-05-01T01:37:48;101257.05;;;0.44;78.65
54369;BME280;40266;52.434;17.056;2023-05-01T01:41:07;101257.95;;;0.40;78.66
54369;BME280;40266;52.434;17.056;2023-05-01T01:43:57;101257.40;;;0.34;79.00
54369;BME280;40266;52.434;17.056;2023-05-01T01:46:43;101253.61;;;0.28;79.01
54369;BME280;40266;52.434;17.056;2023-05-01T01:49:29;101255.20;;;0.25;78.96
54369;BME280;40266;52.434;17.056;2023-05-01T01:52:15;101248.65;;;0.19;79.22
54369;BME280;40266;52.434;17.056;2023-05-01T01:55:21;101255.38;;;0.14;79.31
54369;BME280;40266;52.434;17.056;2023-05-01T01:58:07;101252.13;;;0.10;79.39
54369;BME280;40266;52.434;17.056;2023-05-01T02:00:52;101249.95;;;0.07;79.40
54369;BME280;40266;52.434;17.056;2023-05-01T02:03:37;101246.06;;;0.03;79.35
54369;BME280;40266;52.434;17.056;2023-05-01T02:06:23;101244.95;;;0.01;79.53
54369;BME280;40266;52.434;17.056;2023-05-01T02:09:07;101243.69;;;-0.01;79.63
54369;BME280;40266;52.434;17.056;2023-05-01T02:11:52;101240.67;;;-0.03;79.74
54369;BME280;40266;52.434;17.056;2023-05-01T02:14:38;101238.88;;;-0.06;79.86
54369;BME280;40266;52.434;17.056;2023-05-01T02:17:23;101241.09;;;-0.06;79.74
54369;BME280;40266;52.434;17.056;2023-05-01T02:20:09;101238.13;;;-0.07;80.05
54369;BME280;40266;52.434;17.056;2023-05-01T02:22:52;101236.86;;;-0.10;80.26
54369;BME280;40266;52.434;17.056;2023-05-01T02:25:37;101235.27;;;-0.11;80.37
54369;BME280;40266;52.434;17.056;2023-05-01T02:28:22;101232.80;;;-0.13;80.51
54369;BME280;40266;52.434;17.056;2023-05-01T02:31:06;101231.48;;;-0.16;80.68
54369;BME280;40266;52.434;17.056;2023-05-01T02:33:49;101230.05;;;-0.18;80.60
54369;BME280;40266;52.434;17.056;2023-05-01T02:36:32;101226.00;;;-0.20;80.72
54369;BME280;40266;52.434;17.056;2023-05-01T02:39:15;101226.58;;;-0.24;80.76
54369;BME280;40266;52.434;17.056;2023-05-01T02:41:59;101227.17;;;-0.27;80.80
54369;BME280;40266;52.434;17.056;2023-05-01T02:44:54;101227.06;;;-0.30;80.86
54369;BME280;40266;52.434;17.056;2023-05-01T02:47:39;101223.86;;;-0.33;81.09
54369;BME280;40266;52.434;17.056;2023-05-01T02:50:25;101224.85;;;-0.34;81.02
54369;BME280;40266;52.434;17.056;2023-05-01T02:53:09;101221.82;;;-0.37;80.91
54369;BME280;40266;52.434;17.056;2023-05-01T02:56:03;101218.80;;;-0.39;80.96
54369;BME280;40266;52.434;17.056;2023-05-01T02:58:47;101216.63;;;-0.43;81.10
54369;BME280;40266;52.434;17.056;2023-05-01T03:01:32;101216.50;;;-0.47;81.16
54369;BME280;40266;52.434;17.056;2023-05-01T03:04:15;101215.55;;;-0.49;81.19
54369;BME280;40266;52.434;17.056;2023-05-01T03:06:58;101216.12;;;-0.52;81.36
54369;BME280;40266;52.434;17.056;2023-05-01T03:09:41;101213.11;;;-0.55;81.38
54369;BME280;40266;52.434;17.056;2023-05-01T03:12:24;101212.20;;;-0.56;81.44
54369;BME280;40266;52.434;17.056;2023-05-01T03:15:08;101208.20;;;-0.58;81.56
54369;BME280;40266;52.434;17.056;2023-05-01T03:17:50;101205.33;;;-0.61;81.77
54369;BME280;40266;52.434;17.056;2023-05-01T03:20:34;101206.80;;;-0.63;81.54
54369;BME280;40266;52.434;17.056;2023-05-01T03:23:17;101199.86;;;-0.66;81.85
54369;BME280;40266;52.434;17.056;2023-05-01T03:26:00;101193.63;;;-0.67;81.96
54369;BME280;40266;52.434;17.056;2023-05-01T03:28:43;101192.72;;;-0.68;82.12
54369;BME280;40266;52.434;17.056;2023-05-01T03:31:26;101192.00;;;-0.70;82.07
54369;BME280;40266;52.434;17.056;2023-05-01T03:34:10;101193.34;;;-0.70;82.13
54369;BME280;40266;52.434;17.056;2023-05-01T03:36:53;101196.75;;;-0.71;82.32
54369;BME280;40266;52.434;17.056;2023-05-01T03:39:36;101192.95;;;-0.71;82.40
54369;BME280;40266;52.434;17.056;2023-05-01T03:42:38;101188.48;;;-0.72;82.57
54369;BME280;40266;52.434;17.056;2023-05-01T03:45:25;101185.23;;;-0.71;82.72
54369;BME280;40266;52.434;17.056;2023-05-01T03:48:08;101180.64;;;-0.70;82.64
54369;BME280;40266;52.434;17.056;2023-05-01T03:50:51;101182.92;;;-0.69;82.96
54369;BME280;40266;52.434;17.056;2023-05-01T03:53:34;101182.52;;;-0.66;83.03
54369;BME280;40266;52.434;17.056;2023-05-01T03:56:20;101180.38;;;-0.64;83.03
54369;BME280;40266;52.434;17.056;2023-05-01T03:59:03;101180.45;;;-0.61;83.01
54369;BME280;40266;52.434;17.056;2023-05-01T04:01:46;101181.05;;;-0.58;83.14
54369;BME280;40266;52.434;17.056;2023-05-01T04:04:29;101183.23;;;-0.55;83.32
54369;BME280;40266;52.434;17.056;2023-05-01T04:07:13;101182.36;;;-0.51;83.45
54369;BME280;40266;52.434;17.056;2023-05-01T04:09:56;101183.17;;;-0.47;83.48
54369;BME280;40266;52.434;17.056;2023-05-01T04:12:39;101181.11;;;-0.43;83.67
54369;BME280;40266;52.434;17.056;2023-05-01T04:15:22;101178.95;;;-0.36;83.66
54369;BME280;40266;52.434;17.056;2023-05-01T04:18:05;101177.09;;;-0.30;83.88
54369;BME280;40266;52.434;17.056;2023-05-01T04:20:49;101179.20;;;-0.24;83.90
54369;BME280;40266;52.434;17.056;2023-05-01T04:23:33;101174.48;;;-0.16;84.00
54369;BME280;40266;52.434;17.056;2023-05-01T04:26:16;101176.94;;;-0.10;83.96
54369;BME280;40266;52.434;17.056;2023-05-01T04:28:59;101178.41;;;-0.02;84.08
54369;BME280;40266;52.434;17.056;2023-05-01T04:31:43;101178.49;;;0.06;84.16
54369;BME280;40266;52.434;17.056;2023-05-01T04:34:25;101180.50;;;0.15;84.21
54369;BME280;40266;52.434;17.056;2023-05-01T04:37:11;101180.32;;;0.25;84.68
54369;BME280;40266;52.434;17.056;2023-05-01T04:39:54;101178.58;;;0.35;84.55
54369;BME280;40266;52.434;17.056;2023-05-01T04:42:38;101178.58;;;0.46;84.48
54369;BME280;40266;52.434;17.056;2023-05-01T04:45:23;101180.59;;;0.61;84.54
54369;BME280;40266;52.434;17.056;2023-05-01T04:48:06;101180.34;;;0.86;84.76
54369;BME280;40266;52.434;17.056;2023-05-01T04:50:49;101179.52;;;1.05;84.87
54369;BME280;40266;52.434;17.056;2023-05-01T04:53:32;101178.20;;;1.18;84.78
54369;BME280;40266;52.434;17.056;2023-05-01T04:56:16;101173.64;;;1.34;85.02
54369;BME280;40266;52.434;17.056;2023-05-01T04:59:00;101177.16;;;1.49;84.99
54369;BME280;40266;52.434;17.056;2023-05-01T05:01:44;101177.29;;;1.67;85.00
54369;BME280;40266;52.434;17.056;2023-05-01T05:04:27;101178.73;;;1.88;85.00
54369;BME280;40266;52.434;17.056;2023-05-01T05:07:11;101175.12;;;2.16;84.97
54369;BME280;40266;52.434;17.056;2023-05-01T05:10:20;101179.10;;;3.08;85.01
54369;BME280;40266;52.434;17.056;2023-05-01T05:13:13;101168.24;;;4.75;83.53
54369;BME280;40266;52.434;17.056;2023-05-01T05:15:56;101168.84;;;5.47;82.19
54369;BME280;40266;52.434;17.056;2023-05-01T05:18:39;101169.15;;;6.32;80.50
54369;BME280;40266;52.434;17.056;2023-05-01T05:21:22;101166.86;;;7.52;78.20
54369;BME280;40266;52.434;17.056;2023-05-01T05:24:08;101160.15;;;8.75;76.02
54369;BME280;40266;52.434;17.056;2023-05-01T05:26:51;101160.84;;;9.35;75.60
54369;BME280;40266;52.434;17.056;2023-05-01T05:29:33;101158.27;;;9.88;73.50
54369;BME280;40266;52.434;17.056;2023-05-01T05:32:16;101158.52;;;10.64;71.26
54369;BME280;40266;52.434;17.056;2023-05-01T05:34:59;101158.52;;;11.68;69.02
54369;BME280;40266;52.434;17.056;2023-05-01T05:37:42;101153.30;;;12.25;67.21
54369;BME280;40266;52.434;17.056;2023-05-01T05:40:28;101153.60;;;12.17;65.50
54369;BME280;40266;52.434;17.056;2023-05-01T05:43:11;101156.40;;;11.95;64.15
54369;BME280;40266;52.434;17.056;2023-05-01T05:45:58;101151.83;;;11.59;63.85
54369;BME280;40266;52.434;17.056;2023-05-01T05:48:42;101151.98;;;11.33;63.70
54369;BME280;40266;52.434;17.056;2023-05-01T05:51:25;101153.33;;;11.25;64.00
54369;BME280;40266;52.434;17.056;2023-05-01T05:54:10;101151.36;;;11.13;63.78
54369;BME280;40266;52.434;17.056;2023-05-01T05:56:53;101148.64;;;11.07;63.91
54369;BME280;40266;52.434;17.056;2023-05-01T05:59:36;101149.92;;;11.02;63.59
54369;BME280;40266;52.434;17.056;2023-05-01T06:02:19;101152.30;;;10.93;63.68
54369;BME280;40266;52.434;17.056;2023-05-01T06:05:02;101155.15;;;10.89;63.68
54369;BME280;40266;52.434;17.056;2023-05-01T06:07:45;101154.77;;;10.93;62.86
54369;BME280;40266;52.434;17.056;2023-05-01T06:10:28;101147.45;;;11.18;62.04
54369;BME280;40266;52.434;17.056;2023-05-01T06:13:11;101147.69;;;12.24;60.83
54369;BME280;40266;52.434;17.056;2023-05-01T06:16:01;101139.83;;;12.91;60.35
54369;BME280;40266;52.434;17.056;2023-05-01T06:18:45;101139.13;;;13.00;59.52
54369;BME280;40266;52.434;17.056;2023-05-01T06:21:28;101137.30;;;13.03;59.52
54369;BME280;40266;52.434;17.056;2023-05-01T06:24:14;101140.96;;;13.31;58.02
54369;BME280;40266;52.434;17.056;2023-05-01T06:27:01;101138.58;;;13.53;57.26
54369;BME280;40266;52.434;17.056;2023-05-01T06:29:45;101135.48;;;13.81;56.36
54369;BME280;40266;52.434;17.056;2023-05-01T06:32:27;101138.51;;;13.87;55.19
54369;BME280;40266;52.434;17.056;2023-05-01T06:35:11;101136.42;;;13.86;54.86
54369;BME280;40266;52.434;17.056;2023-05-01T06:37:54;101136.80;;;14.21;53.64
54369;BME280;40266;52.434;17.056;2023-05-01T06:40:38;101138.83;;;14.24;52.78
54369;BME280;40266;52.434;17.056;2023-05-01T06:43:20;101134.46;;;14.23;53.23
54369;BME280;40266;52.434;17.056;2023-05-01T06:46:03;101133.89;;;14.25;52.70
54369;BME280;40266;52.434;17.056;2023-05-01T06:48:46;101131.18;;;14.63;50.67
54369;BME280;40266;52.434;17.056;2023-05-01T06:51:30;101128.40;;;14.40;51.46
54369;BME280;40266;52.434;17.056;2023-05-01T06:54:13;101126.98;;;14.47;52.00
54369;BME280;40266;52.434;17.056;2023-05-01T06:56:56;101124.64;;;14.23;51.88
54369;BME280;40266;52.434;17.056;2023-05-01T06:59:39;101124.23;;;13.88;51.54
54369;BME280;40266;52.434;17.056;2023-05-01T07:02:22;101124.48;;;13.55;51.04
54369;BME280;40266;52.434;17.056;2023-05-01T07:05:06;101120.02;;;13.26;50.85
54369;BME280;40266;52.434;17.056;2023-05-01T07:07:49;101123.16;;;13.18;49.89
54369;BME280;40266;52.434;17.056;2023-05-01T07:10:43;101118.48;;;13.24;50.48
54369;BME280;40266;52.434;17.056;2023-05-01T07:13:26;101116.50;;;13.43;50.44
54369;BME280;40266;52.434;17.056;2023-05-01T07:16:08;101115.41;;;13.45;50.56
54369;BME280;40266;52.434;17.056;2023-05-01T07:18:51;101116.49;;;13.44;49.53
54369;BME280;40266;52.434;17.056;2023-05-01T07:21:34;101115.90;;;13.46;48.82
54369;BME280;40266;52.434;17.056;2023-05-01T07:24:17;101115.20;;;13.30;48.10
54369;BME280;40266;52.434;17.056;2023-05-01T07:27:00;101115.91;;;13.21;48.68
54369;BME280;40266;52.434;17.056;2023-05-01T07:29:43;101112.92;;;13.13;48.25
54369;BME280;40266;52.434;17.056;2023-05-01T07:32:26;101111.51;;;13.13;48.47
54369;BME280;40266;52.434;17.056;2023-05-01T07:35:09;101110.61;;;13.23;47.93
54369;BME280;40266;52.434;17.056;2023-05-01T07:37:52;101112.59;;;13.38;47.94
54369;BME280;40266;52.434;17.056;2023-05-01T07:40:35;101112.94;;;13.53;48.16
54369;BME280;40266;52.434;17.056;2023-05-01T07:43:18;101111.97;;;13.65;47.42
54369;BME280;40266;52.434;17.056;2023-05-01T07:46:01;101108.80;;;13.74;47.02
54369;BME280;40266;52.434;17.056;2023-05-01T07:48:44;101108.45;;;13.73;46.70
54369;BME280;40266;52.434;17.056;2023-05-01T07:51:27;101101.42;;;13.88;46.55
54369;BME280;40266;52.434;17.056;2023-05-01T07:54:10;101101.20;;;13.90;45.87
54369;BME280;40266;52.434;17.056;2023-05-01T07:56:53;101101.14;;;13.70;45.15
54369;BME280;40266;52.434;17.056;2023-05-01T07:59:36;101095.01;;;13.55;46.02
54369;BME280;40266;52.434;17.056;2023-05-01T08:02:19;101091.45;;;13.57;46.28
54369;BME280;40266;52.434;17.056;2023-05-01T08:05:02;101086.74;;;13.71;46.73
54369;BME280;40266;52.434;17.056;2023-05-01T08:07:45;101089.73;;;13.85;46.63
54369;BME280;40266;52.434;17.056;2023-05-01T08:10:28;101086.60;;;13.98;46.97
54369;BME280;40266;52.434;17.056;2023-05-01T08:13:11;101082.77;;;14.32;46.72
54369;BME280;40266;52.434;17.056;2023-05-01T08:15:54;101081.92;;;14.70;45.64
54369;BME280;40266;52.434;17.056;2023-05-01T08:18:40;101076.40;;;14.97;45.43
54369;BME280;40266;52.434;17.056;2023-05-01T08:21:23;101071.80;;;15.22;45.25
54369;BME280;40266;52.434;17.056;2023-05-01T08:24:08;101070.10;;;15.31;44.70
54369;BME280;40266;52.434;17.056;2023-05-01T08:26:50;101067.00;;;15.24;43.20
54369;BME280;40266;52.434;17.056;2023-05-01T08:29:34;101067.02;;;15.57;43.72
54369;BME280;40266;52.434;17.056;2023-05-01T08:32:17;101060.64;;;16.52;43.76
54369;BME280;40266;52.434;17.056;2023-05-01T08:35:00;101058.69;;;18.23;42.55
54369;BME280;40266;52.434;17.056;2023-05-01T08:37:43;101053.95;;;19.90;39.71
54369;BME280;40266;52.434;17.056;2023-05-01T08:40:26;101055.41;;;20.99;37.47
54369;BME280;40266;52.434;17.056;2023-05-01T08:43:12;101055.43;;;21.44;34.81
54369;BME280;40266;52.434;17.056;2023-05-01T08:45:57;101061.68;;;21.56;33.34
54369;BME280;40266;52.434;17.056;2023-05-01T08:48:42;101054.89;;;21.02;34.27
54369;BME280;40266;52.434;17.056;2023-05-01T08:51:29;101055.50;;;20.10;35.22
54369;BME280;40266;52.434;17.056;2023-05-01T08:54:14;101055.65;;;19.38;35.45
54369;BME280;40266;52.434;17.056;2023-05-01T08:57:02;101055.27;;;18.62;34.93
54369;BME280;40266;52.434;17.056;2023-05-01T08:59:47;101056.86;;;17.88;36.11
54369;BME280;40266;52.434;17.056;2023-05-01T09:02:33;101052.50;;;17.47;36.60
54369;BME280;40266;52.434;17.056;2023-05-01T09:05:18;101050.77;;;17.15;36.67
54369;BME280;40266;52.434;17.056;2023-05-01T09:08:01;101047.21;;;16.88;37.40
54369;BME280;40266;52.434;17.056;2023-05-01T09:10:47;101044.73;;;16.63;37.05
54369;BME280;40266;52.434;17.056;2023-05-01T09:13:31;101041.01;;;16.34;37.37
54369;BME280;40266;52.434;17.056;2023-05-01T09:16:14;101038.87;;;16.31;38.51
54369;BME280;40266;52.434;17.056;2023-05-01T09:18:57;101039.20;;;16.31;38.39
54369;BME280;40266;52.434;17.056;2023-05-01T09:21:40;101036.44;;;16.25;38.59
54369;BME280;40266;52.434;17.056;2023-05-01T09:24:24;101034.58;;;16.22;38.30
54369;BME280;40266;52.434;17.056;2023-05-01T09:27:07;101031.34;;;16.14;37.74
54369;BME280;40266;52.434;17.056;2023-05-01T09:29:51;101032.22;;;16.09;37.54
54369;BME280;40266;52.434;17.056;2023-05-01T09:32:34;101026.70;;;16.06;38.26
54369;BME280;40266;52.434;17.056;2023-05-01T09:35:17;101025.94;;;16.02;38.08
54369;BME280;40266;52.434;17.056;2023-05-01T09:38:00;101019.46;;;15.96;38.29
54369;BME280;40266;52.434;17.056;2023-05-01T09:40:44;101020.63;;;15.98;38.61
54369;BME280;40266;52.434;17.056;2023-05-01T09:43:28;101018.79;;;15.95;38.12
54369;BME280;40266;52.434;17.056;2023-05-01T09:46:11;101012.27;;;16.00;38.70
54369;BME280;40266;52.434;17.056;2023-05-01T09:48:59;101009.00;;;16.08;39.51
54369;BME280;40266;52.434;17.056;2023-05-01T09:51:42;101002.99;;;16.18;40.11
54369;BME280;40266;52.434;17.056;2023-05-01T09:54:26;101003.34;;;16.23;39.37
54369;BME280;40266;52.434;17.056;2023-05-01T09:57:09;100999.73;;;16.31;39.66
54369;BME280;40266;52.434;17.056;2023-05-01T10:00:01;100997.02;;;16.38;39.73
54369;BME280;40266;52.434;17.056;2023-05-01T10:02:50;100995.15;;;16.45;39.19
54369;BME280;40266;52.434;17.056;2023-05-01T10:05:43;100996.48;;;16.48;38.87
54369;BME280;40266;52.434;17.056;2023-05-01T10:08:26;100992.58;;;16.43;38.03
54369;BME280;40266;52.434;17.056;2023-05-01T10:11:15;100992.53;;;16.20;37.65
54369;BME280;40266;52.434;17.056;2023-05-01T10:14:05;100991.88;;;16.19;37.62
54369;BME280;40266;52.434;17.056;2023-05-01T10:16:50;100984.02;;;16.17;37.64
54369;BME280;40266;52.434;17.056;2023-05-01T10:19:36;100985.79;;;16.27;38.20
54369;BME280;40266;52.434;17.056;2023-05-01T10:22:19;100980.40;;;16.34;37.75
54369;BME280;40266;52.434;17.056;2023-05-01T10:25:02;100980.96;;;16.38;37.92
54369;BME280;40266;52.434;17.056;2023-05-01T10:27:46;100974.16;;;16.41;37.97
54369;BME280;40266;52.434;17.056;2023-05-01T10:30:31;100970.38;;;16.48;38.11
54369;BME280;40266;52.434;17.056;2023-05-01T10:33:15;100967.52;;;16.44;37.57
54369;BME280;40266;52.434;17.056;2023-05-01T10:35:59;100960.53;;;16.38;37.47
54369;BME280;40266;52.434;17.056;2023-05-01T10:38:43;100955.58;;;16.38;37.26
54369;BME280;40266;52.434;17.056;2023-05-01T10:44:41;100946.32;;;16.50;38.24
54369;BME280;40266;52.434;17.056;2023-05-01T10:50:11;100939.17;;;16.66;38.39
54369;BME280;40266;52.434;17.056;2023-05-01T10:55:57;100931.55;;;16.77;38.46
54369;BME280;40266;52.434;17.056;2023-05-01T11:09:52;100929.49;;;16.98;38.09
54369;BME280;40266;52.434;17.056;2023-05-01T11:12:48;100917.86;;;17.07;38.17
54369;BME280;40266;52.434;17.056;2023-05-01T11:15:33;100914.72;;;17.06;36.86
54369;BME280;40266;52.434;17.056;2023-05-01T11:18:45;100912.85;;;17.00;36.73
54369;BME280;40266;52.434;17.056;2023-05-01T11:21:29;100904.67;;;17.06;36.84
54369;BME280;40266;52.434;17.056;2023-05-01T11:24:15;100905.16;;;17.02;36.37
54369;BME280;40266;52.434;17.056;2023-05-01T11:27:02;100896.20;;;16.92;36.25
54369;BME280;40266;52.434;17.056;2023-05-01T11:29:48;100889.72;;;16.91;36.76
54369;BME280;40266;52.434;17.056;2023-05-01T11:32:32;100891.98;;;16.92;35.39
54369;BME280;40266;52.434;17.056;2023-05-01T11:35:22;100884.11;;;16.95;35.26
54369;BME280;40266;52.434;17.056;2023-05-01T11:38:05;100889.59;;;16.99;34.83
54369;BME280;40266;52.434;17.056;2023-05-01T11:40:53;100885.90;;;16.99;34.80
54369;BME280;40266;52.434;17.056;2023-05-01T11:43:57;100884.10;;;17.04;35.02
54369;BME280;40266;52.434;17.056;2023-05-01T11:46:40;100877.88;;;17.14;35.85
54369;BME280;40266;52.434;17.056;2023-05-01T11:49:27;100874.34;;;17.27;35.38
54369;BME280;40266;52.434;17.056;2023-05-01T11:52:10;100870.40;;;17.32;34.87
54369;BME280;40266;52.434;17.056;2023-05-01T11:54:54;100868.27;;;17.41;34.52
54369;BME280;40266;52.434;17.056;2023-05-01T11:57:51;100861.09;;;17.43;34.66
54369;BME280;40266;52.434;17.056;2023-05-01T12:00:36;100857.52;;;17.40;35.25
54369;BME280;40266;52.434;17.056;2023-05-01T12:03:20;100850.52;;;17.39;33.86
54369;BME280;40266;52.434;17.056;2023-05-01T12:06:05;100845.11;;;17.38;34.51
54369;BME280;40266;52.434;17.056;2023-05-01T12:08:49;100848.14;;;17.40;34.42
54369;BME280;40266;52.434;17.056;2023-05-01T12:11:35;100840.23;;;17.40;34.01
54369;BME280;40266;52.434;17.056;2023-05-01T12:14:19;100833.59;;;17.34;34.78
54369;BME280;40266;52.434;17.056;2023-05-01T12:17:04;100833.14;;;17.37;35.66
54369;BME280;40266;52.434;17.056;2023-05-01T12:19:48;100823.94;;;17.41;35.60
54369;BME280;40266;52.434;17.056;2023-05-01T12:22:31;100821.35;;;17.44;35.57
54369;BME280;40266;52.434;17.056;2023-05-01T12:25:15;100812.43;;;17.49;34.75
54369;BME280;40266;52.434;17.056;2023-05-01T12:28:02;100808.83;;;17.52;35.43
54369;BME280;40266;52.434;17.056;2023-05-01T12:30:49;100808.41;;;17.57;35.43
54369;BME280;40266;52.434;17.056;2023-05-01T12:33:32;100809.35;;;17.64;35.84
54369;BME280;40266;52.434;17.056;2023-05-01T12:36:14;100805.13;;;17.71;35.63
54369;BME280;40266;52.434;17.056;2023-05-01T12:39:05;100799.83;;;17.75;34.46
54369;BME280;40266;52.434;17.056;2023-05-01T12:41:50;100795.17;;;17.76;34.47
54369;BME280;40266;52.434;17.056;2023-05-01T12:44:33;100782.45;;;17.73;33.63
54369;BME280;40266;52.434;17.056;2023-05-01T12:47:16;100772.52;;;17.78;34.55
54369;BME280;40266;52.434;17.056;2023-05-01T12:50:01;100770.45;;;17.88;34.22
54369;BME280;40266;52.434;17.056;2023-05-01T12:52:44;100763.14;;;17.98;33.47
54369;BME280;40266;52.434;17.056;2023-05-01T12:55:27;100752.73;;;18.01;33.70
54369;BME280;40266;52.434;17.056;2023-05-01T12:58:10;100755.23;;;18.04;34.17
54369;BME280;40266;52.434;17.056;2023-05-01T13:00:54;100753.53;;;17.99;33.45
54369;BME280;40266;52.434;17.056;2023-05-01T13:03:43;100751.76;;;17.96;33.45
54369;BME280;40266;52.434;17.056;2023-05-01T13:06:32;100745.21;;;17.99;33.51
54369;BME280;40266;52.434;17.056;2023-05-01T13:09:15;100740.41;;;18.07;33.93
54369;BME280;40266;52.434;17.056;2023-05-01T13:12:03;100734.09;;;18.14;34.29
54369;BME280;40266;52.434;17.056;2023-05-01T13:14:47;100730.85;;;18.19;33.65
54369;BME280;40266;52.434;17.056;2023-05-01T13:17:31;100726.11;;;18.22;33.59
54369;BME280;40266;52.434;17.056;2023-05-01T13:20:24;100723.94;;;18.30;34.13
54369;BME280;40266;52.434;17.056;2023-05-01T13:23:10;100719.82;;;18.35;33.20
54369;BME280;40266;52.434;17.056;2023-05-01T13:25:56;100714.48;;;18.36;33.73
54369;BME280;40266;52.434;17.056;2023-05-01T13:28:42;100715.83;;;18.37;34.04
54369;BME280;40266;52.434;17.056;2023-05-01T13:31:29;100716.13;;;18.42;33.58
54369;BME280;40266;52.434;17.056;2023-05-01T13:34:16;100712.77;;;18.42;33.48
54369;BME280;40266;52.434;17.056;2023-05-01T13:37:02;100711.34;;;18.42;33.32
54369;BME280;40266;52.434;17.056;2023-05-01T13:39:46;100705.41;;;18.37;33.30
54369;BME280;40266;52.434;17.056;2023-05-01T13:42:30;100697.02;;;18.35;33.08
54369;BME280;40266;52.434;17.056;2023-05-01T13:45:17;100690.14;;;18.34;32.67
54369;BME280;40266;52.434;17.056;2023-05-01T13:48:03;100688.27;;;18.37;32.54
54369;BME280;40266;52.434;17.056;2023-05-01T13:50:46;100687.93;;;18.40;32.75
54369;BME280;40266;52.434;17.056;2023-05-01T13:53:29;100679.61;;;18.41;32.34
54369;BME280;40266;52.434;17.056;2023-05-01T13:56:12;100677.73;;;18.39;32.94
54369;BME280;40266;52.434;17.056;2023-05-01T13:58:59;100681.77;;;18.46;32.71
54369;BME280;40266;52.434;17.056;2023-05-01T14:01:42;100677.20;;;18.46;32.55
54369;BME280;40266;52.434;17.056;2023-05-01T14:04:29;100675.29;;;18.45;32.28
54369;BME280;40266;52.434;17.056;2023-05-01T14:07:20;100670.06;;;18.40;32.07
54369;BME280;40266;52.434;17.056;2023-05-01T14:10:07;100664.86;;;18.45;32.72
54369;BME280;40266;52.434;17.056;2023-05-01T14:12:54;100657.08;;;18.52;32.72
54369;BME280;40266;52.434;17.056;2023-05-01T14:15:38;100652.02;;;18.54;31.98
54369;BME280;40266;52.434;17.056;2023-05-01T14:18:25;100651.73;;;18.56;32.87
54369;BME280;40266;52.434;17.056;2023-05-01T14:21:08;100652.38;;;18.65;31.71
54369;BME280;40266;52.434;17.056;2023-05-01T14:23:51;100649.73;;;18.58;31.76
54369;BME280;40266;52.434;17.056;2023-05-01T14:26:37;100650.95;;;18.54;31.49
54369;BME280;40266;52.434;17.056;2023-05-01T14:29:24;100640.52;;;18.47;31.87
54369;BME280;40266;52.434;17.056;2023-05-01T14:32:09;100638.35;;;18.49;31.80
54369;BME280;40266;52.434;17.056;2023-05-01T14:34:52;100635.31;;;18.46;31.53
54369;BME280;40266;52.434;17.056;2023-05-01T14:37:35;100639.02;;;18.42;31.53
54369;BME280;40266;52.434;17.056;2023-05-01T14:40:25;100638.83;;;18.35;31.50
54369;BME280;40266;52.434;17.056;2023-05-01T14:43:18;100628.59;;;18.31;32.08
54369;BME280;40266;52.434;17.056;2023-05-01T14:46:01;100632.48;;;18.28;31.77
54369;BME280;40266;52.434;17.056;2023-05-01T14:48:44;100626.39;;;18.23;31.93
54369;BME280;40266;52.434;17.056;2023-05-01T14:51:28;100622.77;;;18.18;31.83
54369;BME280;40266;52.434;17.056;2023-05-01T14:54:14;100610.78;;;18.17;32.35
54369;BME280;40266;52.434;17.056;2023-05-01T14:56:57;100608.48;;;18.17;32.45
54369;BME280;40266;52.434;17.056;2023-05-01T14:59:40;100602.13;;;18.16;32.20
54369;BME280;40266;52.434;17.056;2023-05-01T15:02:23;100603.40;;;18.20;32.50
54369;BME280;40266;52.434;17.056;2023-05-01T15:05:08;100597.23;;;18.26;32.08
54369;BME280;40266;52.434;17.056;2023-05-01T15:07:54;100589.08;;;18.30;32.22
54369;BME280;40266;52.434;17.056;2023-05-01T15:10:43;100590.61;;;18.34;32.01
54369;BME280;40266;52.434;17.056;2023-05-01T15:13:27;100586.98;;;18.40;32.39
54369;BME280;40266;52.434;17.056;2023-05-01T15:16:10;100576.83;;;18.41;32.36
54369;BME280;40266;52.434;17.056;2023-05-01T15:18:54;100571.80;;;18.43;32.64
54369;BME280;40266;52.434;17.056;2023-05-01T15:21:36;100567.94;;;18.42;32.32
54369;BME280;40266;52.434;17.056;2023-05-01T15:24:19;100562.02;;;18.37;31.75
54369;BME280;40266;52.434;17.056;2023-05-01T15:27:04;100560.05;;;18.27;31.38
54369;BME280;40266;52.434;17.056;2023-05-01T15:29:47;100553.37;;;18.13;31.19
54369;BME280;40266;52.434;17.056;2023-05-01T15:32:30;100551.26;;;18.02;31.45
54369;BME280;40266;52.434;17.056;2023-05-01T15:35:13;100545.35;;;17.93;31.88
54369;BME280;40266;52.434;17.056;2023-05-01T15:37:58;100543.42;;;17.85;32.13
54369;BME280;40266;52.434;17.056;2023-05-01T15:40:44;100540.41;;;17.78;32.13
54369;BME280;40266;52.434;17.056;2023-05-01T15:43:27;100538.93;;;17.72;31.95